createdAt,value
2019-04-13T04:01:01.341Z,5.80
2019-04-13T04:02:01.214Z,11.30
2019-04-13T04:03:53.860Z,11.50
2019-04-13T04:04:53.747Z,12.30
2019-04-13T04:06:46.421Z,12.20
2019-04-13T04:07:46.284Z,11.60
2019-04-13T04:09:38.940Z,11.70
2019-04-13T04:10:38.829Z,12.00
2019-04-13T04:12:31.502Z,11.60
2019-04-13T04:13:31.370Z,12.30
2019-04-13T04:15:24.024Z,12.20
2019-04-13T04:16:23.913Z,11.50
2019-04-13T04:18:16.585Z,11.20
2019-04-13T04:19:16.459Z,10.90
2019-04-13T04:21:09.115Z,11.00
2019-04-13T04:22:08.993Z,11.60
2019-04-13T04:24:01.668Z,11.70
2019-04-13T04:25:01.535Z,11.80
2019-04-13T04:26:54.193Z,12.40
2019-04-13T04:27:54.081Z,11.70
2019-04-13T04:29:46.757Z,12.00
2019-04-13T04:30:46.623Z,11.40
2019-04-13T04:32:39.280Z,11.60
2019-04-13T04:33:39.162Z,11.30
2019-04-13T04:35:31.840Z,12.20
2019-04-13T04:36:31.703Z,11.70
2019-04-13T04:38:24.367Z,12.10
2019-04-13T04:39:24.244Z,12.40
2019-04-13T04:41:16.932Z,12.30
2019-04-13T04:42:16.796Z,12.20
2019-04-13T04:44:09.449Z,12.20
2019-04-13T04:45:09.335Z,12.30
2019-04-13T04:47:02.015Z,12.30
2019-04-13T04:48:01.884Z,12.80
2019-04-13T04:49:54.551Z,12.10
2019-04-13T04:50:54.438Z,12.70
2019-04-13T04:52:47.105Z,12.30
2019-04-13T04:53:46.975Z,12.80
2019-04-13T04:55:39.658Z,12.10
2019-04-13T04:56:39.531Z,12.10
2019-04-13T04:58:32.200Z,12.90
2019-04-13T04:59:32.073Z,12.10
2019-04-13T05:01:24.722Z,12.40
2019-04-13T05:02:24.613Z,12.30
2019-04-13T05:04:17.278Z,12.90
2019-04-13T05:05:17.155Z,12.40
2019-04-13T05:07:09.811Z,12.00
2019-04-13T05:08:11.776Z,12.90
2019-04-13T05:10:02.374Z,12.60
2019-04-13T05:11:02.239Z,13.00
2019-04-13T05:12:54.906Z,11.90
2019-04-13T05:13:56.232Z,12.70
2019-04-13T05:15:47.463Z,12.80
2019-04-13T05:16:47.329Z,11.70
2019-04-13T05:18:39.985Z,12.70
2019-04-13T05:19:39.875Z,12.70
2019-04-13T05:21:32.556Z,13.30
2019-04-13T05:22:32.420Z,12.40
2019-04-13T05:24:25.090Z,12.70
2019-04-13T05:25:24.965Z,12.60
2019-04-13T05:27:17.641Z,14.20
2019-04-13T05:28:18.371Z,14.10
2019-04-13T05:30:10.160Z,12.50
2019-04-13T05:31:10.045Z,13.40
2019-04-13T05:33:02.731Z,13.20
2019-04-13T05:34:02.600Z,11.60
2019-04-13T05:35:55.267Z,12.40
2019-04-13T05:36:55.148Z,13.10
2019-04-13T05:38:47.823Z,12.30
2019-04-13T05:39:47.700Z,12.30
2019-04-13T05:41:40.362Z,12.60
2019-04-13T05:42:40.240Z,12.00
2019-04-13T05:44:32.924Z,11.50
2019-04-13T05:45:32.785Z,13.40
2019-04-13T05:47:25.439Z,12.70
2019-04-13T05:48:25.329Z,12.80
2019-04-13T05:50:17.998Z,12.90
2019-04-13T05:51:17.870Z,13.20
2019-04-13T05:53:10.519Z,13.10
2019-04-13T05:54:10.411Z,13.10
2019-04-13T05:56:03.261Z,12.80
2019-04-13T05:57:02.995Z,13.10
2019-04-13T05:59:03.154Z,13.00
2019-04-13T05:59:55.508Z,12.10
2019-04-13T06:01:48.197Z,12.80
2019-04-13T06:02:48.046Z,13.40
2019-04-13T06:04:40.720Z,13.40
2019-04-13T06:05:40.628Z,13.10
2019-04-13T06:07:33.276Z,12.70
2019-04-13T06:08:35.781Z,12.30
2019-04-13T06:10:25.800Z,12.80
2019-04-13T06:11:25.690Z,12.40
2019-04-13T06:13:18.365Z,12.50
2019-04-13T06:14:18.239Z,13.00
2019-04-13T06:16:10.893Z,13.10
2019-04-13T06:17:10.776Z,13.40
2019-04-13T06:19:03.458Z,13.30
2019-04-13T06:20:03.320Z,12.70
2019-04-13T06:21:56.475Z,14.20
2019-04-13T06:22:56.353Z,13.60
2019-04-13T06:24:51.953Z,13.00
2019-04-13T06:25:48.901Z,11.80
2019-04-13T06:27:42.415Z,12.90
2019-04-13T06:28:41.804Z,11.70
2019-04-13T06:30:35.130Z,12.50
2019-04-13T06:31:34.993Z,12.50
2019-04-13T06:33:27.652Z,12.70
2019-04-13T06:34:27.538Z,12.50
2019-04-13T06:36:20.229Z,12.90
2019-04-13T06:37:20.087Z,13.30
2019-04-13T06:39:12.751Z,12.40
2019-04-13T06:40:12.632Z,13.00
2019-04-13T06:42:05.310Z,12.50
2019-04-13T06:43:05.181Z,12.80
2019-04-13T06:44:57.845Z,12.20
2019-04-13T06:45:57.722Z,11.50
2019-04-13T06:47:50.565Z,11.80
2019-04-13T06:48:50.282Z,11.90
2019-04-13T06:50:42.945Z,11.70
2019-04-13T06:51:42.824Z,12.70
2019-04-13T06:53:38.374Z,12.90
2019-04-13T06:54:35.367Z,12.30
2019-04-13T06:56:28.033Z,11.40
2019-04-13T06:57:29.049Z,12.30
2019-04-13T06:59:20.593Z,11.70
2019-04-13T07:00:20.463Z,12.20
2019-04-13T07:02:13.126Z,12.30
2019-04-13T07:03:12.999Z,12.70
2019-04-13T07:05:05.680Z,12.10
2019-04-13T07:06:05.548Z,12.10
2019-04-13T07:07:58.220Z,11.70
2019-04-13T07:08:58.104Z,12.00
2019-04-13T07:10:50.790Z,12.80
2019-04-13T07:11:50.695Z,12.40
2019-04-13T07:13:43.314Z,11.80
2019-04-13T07:14:43.203Z,11.80
2019-04-13T07:16:35.890Z,11.80
2019-04-13T07:17:35.797Z,10.80
2019-04-13T07:19:28.429Z,10.90
2019-04-13T07:20:28.315Z,11.50
2019-04-13T07:22:22.175Z,11.00
2019-04-13T07:23:25.196Z,10.90
2019-04-13T07:25:13.531Z,11.10
2019-04-13T07:26:13.411Z,11.10
2019-04-13T07:28:06.103Z,10.70
2019-04-13T07:29:05.977Z,10.70
2019-04-13T07:31:01.008Z,11.20
2019-04-13T07:32:01.481Z,11.30
2019-04-13T07:33:51.225Z,11.30
2019-04-13T07:34:51.193Z,12.60
2019-04-13T07:36:43.758Z,12.20
2019-04-13T07:37:44.848Z,12.60
2019-04-13T07:39:36.357Z,11.50
2019-04-13T07:40:36.203Z,11.20
2019-04-13T07:42:28.860Z,12.00
2019-04-13T07:43:28.753Z,12.60
2019-04-13T07:45:22.309Z,11.90
2019-04-13T07:46:21.316Z,11.30
2019-04-13T07:48:13.970Z,11.50
2019-04-13T07:49:14.544Z,11.60
2019-04-13T07:51:06.538Z,12.20
2019-04-13T07:52:07.316Z,11.70
2019-04-13T07:53:59.075Z,12.00
2019-04-13T07:54:58.958Z,11.80
2019-04-13T07:56:51.663Z,13.00
2019-04-13T07:57:51.524Z,12.30
2019-04-13T07:59:44.189Z,12.70
2019-04-13T08:00:45.852Z,13.10
2019-04-13T08:02:36.753Z,12.00
2019-04-13T08:03:36.618Z,12.40
2019-04-13T08:05:29.291Z,12.40
2019-04-13T08:06:29.172Z,12.80
2019-04-13T08:08:21.864Z,12.30
2019-04-13T08:09:21.737Z,12.80
2019-04-13T08:11:14.396Z,13.00
2019-04-13T08:12:16.773Z,12.50
2019-04-13T08:14:06.957Z,12.30
2019-04-13T08:15:06.838Z,12.90
2019-04-13T08:16:59.492Z,13.70
2019-04-13T08:17:59.384Z,12.20
2019-04-13T08:19:55.789Z,12.60
2019-04-13T08:20:51.943Z,12.80
2019-04-13T08:22:44.615Z,13.20
2019-04-13T08:23:44.493Z,13.20
2019-04-13T08:25:37.247Z,12.00
2019-04-13T08:26:37.050Z,11.30
2019-04-13T08:28:29.760Z,12.00
2019-04-13T08:29:29.608Z,11.80
2019-04-13T08:31:26.197Z,12.40
2019-04-13T08:32:22.176Z,12.30
2019-04-13T08:34:14.842Z,12.10
2019-04-13T08:35:14.733Z,12.40
2019-04-13T08:37:07.422Z,11.90
2019-04-13T08:38:13.106Z,10.90
2019-04-13T08:40:02.524Z,11.70
2019-04-13T08:41:10.741Z,11.50
2019-04-13T08:42:52.511Z,11.40
2019-04-13T08:43:52.377Z,11.80
2019-04-13T08:45:45.091Z,12.10
2019-04-13T08:46:44.946Z,11.80
2019-04-13T08:48:37.618Z,12.20
2019-04-13T08:49:37.490Z,12.40
2019-04-13T08:51:30.148Z,12.30
2019-04-13T08:52:30.043Z,11.50
2019-04-13T08:54:22.721Z,12.10
2019-04-13T08:55:22.588Z,11.90
2019-04-13T08:57:15.247Z,12.50
2019-04-13T08:58:15.141Z,12.60
2019-04-13T09:00:07.826Z,11.60
2019-04-13T09:01:07.687Z,12.10
2019-04-13T09:03:00.374Z,12.10
2019-04-13T09:04:00.262Z,11.40
2019-04-13T09:05:52.949Z,12.30
2019-04-13T09:06:52.821Z,12.00
2019-04-13T09:08:45.473Z,12.20
2019-04-13T09:09:48.460Z,11.50
2019-04-13T09:11:38.644Z,10.60
2019-04-13T09:12:38.842Z,10.20
2019-04-13T09:14:31.854Z,10.70
2019-04-13T09:15:31.074Z,10.80
2019-04-13T09:17:23.140Z,11.20
2019-04-13T09:18:23.011Z,11.40
2019-04-13T09:20:15.685Z,11.60
2019-04-13T09:21:16.673Z,11.70
2019-04-13T09:23:08.845Z,11.50
2019-04-13T09:24:08.113Z,10.90
2019-04-13T09:26:00.789Z,11.20
2019-04-13T09:27:00.668Z,11.00
2019-04-13T09:28:53.346Z,11.60
2019-04-13T09:29:53.213Z,11.00
2019-04-13T09:31:45.888Z,12.10
2019-04-13T09:32:45.771Z,10.80
2019-04-13T09:34:38.448Z,10.30
2019-04-13T09:35:38.325Z,11.30
2019-04-13T09:37:32.906Z,11.60
2019-04-13T09:38:41.858Z,11.40
2019-04-13T09:40:23.551Z,12.10
2019-04-13T09:41:23.415Z,11.60
2019-04-13T09:43:16.086Z,11.40
2019-04-13T09:44:15.976Z,11.20
2019-04-13T09:46:08.652Z,10.30
2019-04-13T09:47:08.958Z,10.60
2019-04-13T09:49:01.185Z,10.40
2019-04-13T09:50:01.072Z,10.20
2019-04-13T09:51:53.760Z,9.40
2019-04-13T09:52:53.617Z,10.00
2019-04-13T09:54:46.277Z,8.50
2019-04-13T09:55:49.671Z,8.40
2019-04-13T09:57:38.848Z,8.10
2019-04-13T09:58:38.720Z,7.50
2019-04-13T10:00:31.385Z,7.70
2019-04-13T10:01:31.387Z,7.10
2019-04-13T10:03:23.969Z,6.80
2019-04-13T10:04:23.845Z,7.10
2019-04-13T10:06:16.504Z,7.50
2019-04-13T10:07:16.391Z,7.60
2019-04-13T10:09:09.342Z,7.40
2019-04-13T10:10:12.488Z,7.70
2019-04-13T10:12:01.617Z,7.50
2019-04-13T10:13:01.510Z,7.70
2019-04-13T10:14:54.234Z,7.60
2019-04-13T10:15:54.118Z,7.30
2019-04-13T10:17:46.732Z,7.40
2019-04-13T10:18:46.621Z,7.70
2019-04-13T10:20:42.235Z,8.10
2019-04-13T10:21:39.185Z,7.50
2019-04-13T10:23:31.856Z,8.10
2019-04-13T10:24:31.747Z,8.10
2019-04-13T10:26:24.432Z,8.10
2019-04-13T10:27:24.318Z,7.90
2019-04-13T10:29:19.340Z,8.00
2019-04-13T10:30:20.079Z,7.30
2019-04-13T10:32:09.553Z,7.10
2019-04-13T10:33:09.417Z,7.50
2019-04-13T10:35:02.112Z,7.40
2019-04-13T10:36:01.979Z,7.50
2019-04-13T10:37:54.985Z,7.30
2019-04-13T10:38:54.547Z,7.30
2019-04-13T10:40:47.210Z,7.00
2019-04-13T10:41:47.108Z,7.00
2019-04-13T10:43:39.794Z,8.30
2019-04-13T10:44:42.142Z,15.90
2019-04-13T10:46:32.327Z,8.10
2019-04-13T10:47:32.212Z,8.70
2019-04-13T10:49:25.020Z,8.00
2019-04-13T10:50:24.856Z,8.10
2019-04-13T10:52:20.553Z,7.10
2019-04-13T10:53:17.409Z,8.00
2019-04-13T10:55:10.089Z,7.20
2019-04-13T10:56:09.959Z,6.80
2019-04-13T10:58:02.615Z,7.90
2019-04-13T10:59:02.518Z,9.00
2019-04-13T11:00:55.197Z,8.70
2019-04-13T11:01:55.063Z,8.40
2019-04-13T11:03:47.725Z,8.90
2019-04-13T11:04:47.611Z,8.80
2019-04-13T11:06:40.302Z,9.40
2019-04-13T11:07:40.175Z,8.20
2019-04-13T11:09:32.836Z,9.00
2019-04-13T11:10:34.851Z,9.30
2019-04-13T11:12:25.425Z,9.00
2019-04-13T11:13:25.281Z,7.80
2019-04-13T11:15:17.952Z,7.90
2019-04-13T11:16:18.399Z,7.70
2019-04-13T11:18:10.522Z,7.70
2019-04-13T11:19:10.389Z,7.20
2019-04-13T11:21:03.059Z,7.20
2019-04-13T11:22:02.946Z,7.30
2019-04-13T11:23:55.626Z,6.90
2019-04-13T11:24:55.496Z,6.30
2019-04-13T11:26:51.257Z,6.10
2019-04-13T11:27:48.061Z,6.50
2019-04-13T11:29:40.762Z,6.10
2019-04-13T11:30:40.621Z,5.50
2019-04-13T11:32:33.298Z,5.50
2019-04-13T11:33:33.186Z,6.30
2019-04-13T11:35:25.871Z,6.30
2019-04-13T11:36:25.742Z,5.90
2019-04-13T11:38:18.695Z,6.30
2019-04-13T11:39:18.324Z,16.00
2019-04-13T11:41:10.978Z,5.70
2019-04-13T11:42:10.863Z,6.00
2019-04-13T11:44:03.583Z,6.50
2019-04-13T11:45:03.414Z,6.20
2019-04-13T11:46:56.107Z,6.00
2019-04-13T11:47:55.990Z,6.60
2019-04-13T11:49:48.668Z,6.60
2019-04-13T11:50:48.552Z,6.30
2019-04-13T11:52:41.231Z,6.60
2019-04-13T11:53:41.107Z,7.00
2019-04-13T11:55:34.719Z,6.80
2019-04-13T11:56:36.788Z,6.90
2019-04-13T11:58:26.352Z,7.20
2019-04-13T11:59:26.224Z,7.50
2019-04-13T12:01:18.887Z,7.40
2019-04-13T12:02:18.807Z,7.10
2019-04-13T12:04:11.456Z,8.00
2019-04-13T12:05:11.331Z,8.50
2019-04-13T12:07:04.008Z,8.50
2019-04-13T12:08:03.886Z,8.30
2019-04-13T12:09:56.582Z,8.00
2019-04-13T12:10:56.454Z,8.20
2019-04-13T12:12:49.151Z,7.90
2019-04-13T12:13:49.036Z,7.70
2019-04-13T12:15:41.723Z,8.80
2019-04-13T12:16:41.593Z,11.10
2019-04-13T12:18:34.261Z,8.20
2019-04-13T12:19:34.146Z,8.50
2019-04-13T12:21:26.829Z,8.50
2019-04-13T12:22:26.714Z,7.90
2019-04-13T12:24:19.371Z,8.10
2019-04-13T12:25:19.259Z,8.10
2019-04-13T12:27:11.958Z,8.80
2019-04-13T12:28:11.814Z,8.40
2019-04-13T12:30:04.498Z,8.00
2019-04-13T12:31:04.387Z,8.40
2019-04-13T12:32:57.070Z,8.90
2019-04-13T12:33:56.935Z,7.70
2019-04-13T12:35:49.605Z,7.80
2019-04-13T12:36:49.497Z,8.70
2019-04-13T12:38:49.681Z,8.60
2019-04-13T12:39:42.068Z,9.30
2019-04-13T12:41:34.735Z,9.10
2019-04-13T12:42:34.623Z,9.20
2019-04-13T12:44:37.024Z,9.80
2019-04-13T12:45:27.177Z,9.20
2019-04-13T12:47:19.856Z,8.60
2019-04-13T12:48:19.748Z,9.10
2019-04-13T12:50:12.430Z,9.10
2019-04-13T12:51:12.303Z,9.30
2019-04-13T12:53:04.977Z,8.90
2019-04-13T12:54:04.921Z,8.70
2019-04-13T12:55:57.559Z,8.60
2019-04-13T12:56:57.430Z,9.20
2019-04-13T12:58:50.100Z,9.30
2019-04-13T12:59:49.996Z,9.40
2019-04-13T13:01:44.948Z,9.10
2019-04-13T13:02:42.555Z,9.30
2019-04-13T13:04:35.233Z,9.90
2019-04-13T13:05:35.119Z,9.80
2019-04-13T13:07:27.807Z,10.00
2019-04-13T13:08:27.674Z,10.40
2019-04-13T13:10:24.179Z,9.90
2019-04-13T13:11:20.256Z,10.30
2019-04-13T13:13:12.941Z,11.40
2019-04-13T13:14:12.809Z,11.00
2019-04-13T13:16:05.475Z,11.10
2019-04-13T13:17:05.383Z,12.40
2019-04-13T13:18:58.375Z,11.10
2019-04-13T13:19:57.922Z,10.60
2019-04-13T13:21:50.587Z,10.20
2019-04-13T13:22:50.476Z,10.70
2019-04-13T13:24:43.800Z,10.00
2019-04-13T13:25:43.022Z,9.70
2019-04-13T13:27:35.749Z,11.50
2019-04-13T13:28:35.585Z,10.30
2019-04-13T13:30:28.272Z,10.20
2019-04-13T13:31:28.141Z,9.70
2019-04-13T13:33:20.806Z,10.20
2019-04-13T13:34:20.689Z,10.60
2019-04-13T13:36:13.369Z,10.50
2019-04-13T13:37:13.259Z,10.00
2019-04-13T13:39:05.949Z,10.60
2019-04-13T13:40:05.798Z,9.50
2019-04-13T13:41:58.485Z,9.70
2019-04-13T13:42:58.358Z,10.00
2019-04-13T13:44:51.979Z,10.40
2019-04-13T13:45:50.918Z,10.60
2019-04-13T13:47:43.598Z,10.70
2019-04-13T13:48:43.480Z,10.50
2019-04-13T13:50:36.151Z,11.20
2019-04-13T13:51:36.034Z,10.60
2019-04-13T13:53:28.731Z,11.30
2019-04-13T13:54:28.593Z,12.20
2019-04-13T13:56:21.257Z,12.50
2019-04-13T13:57:21.146Z,12.60
2019-04-13T13:59:13.850Z,12.50
2019-04-13T14:00:13.726Z,12.90
2019-04-13T14:02:06.397Z,13.60
2019-04-13T14:03:06.283Z,12.70
2019-04-13T14:05:00.630Z,13.70
2019-04-13T14:05:58.866Z,13.90
2019-04-13T14:07:51.549Z,14.40
2019-04-13T14:08:51.445Z,13.40
2019-04-13T14:10:48.262Z,14.50
2019-04-13T14:11:43.987Z,14.80
2019-04-13T14:13:36.705Z,15.50
2019-04-13T14:14:36.559Z,14.30
2019-04-13T14:16:29.223Z,14.00
2019-04-13T14:17:29.114Z,15.00
2019-04-13T14:19:21.813Z,15.60
2019-04-13T14:20:21.677Z,15.20
2019-04-13T14:22:14.345Z,13.90
2019-04-13T14:23:14.233Z,14.20
2019-04-13T14:25:06.927Z,14.00
2019-04-13T14:26:06.807Z,14.50
2019-04-13T14:27:59.460Z,14.60
2019-04-13T14:28:59.346Z,14.30
2019-04-13T14:30:52.703Z,15.40
2019-04-13T14:31:51.901Z,15.70
2019-04-13T14:33:44.573Z,17.10
2019-04-13T14:34:44.468Z,15.90
2019-04-13T14:36:37.225Z,16.20
2019-04-13T14:37:37.013Z,16.00
2019-04-13T14:39:29.691Z,15.80
2019-04-13T14:40:30.353Z,15.70
2019-04-13T14:42:22.270Z,16.10
2019-04-13T14:43:22.142Z,15.50
2019-04-13T14:45:14.827Z,15.30
2019-04-13T14:46:14.701Z,15.40
2019-04-13T14:48:07.443Z,16.00
2019-04-13T14:49:07.292Z,16.10
2019-04-13T14:50:59.962Z,15.90
2019-04-13T14:51:59.850Z,15.60
2019-04-13T14:53:52.542Z,15.50
2019-04-13T14:54:53.043Z,14.40
2019-04-13T14:56:45.073Z,13.20
2019-04-13T14:57:44.963Z,14.20
2019-04-13T14:59:37.657Z,13.70
2019-04-13T15:00:37.516Z,14.30
2019-04-13T15:02:30.191Z,13.70
2019-04-13T15:03:30.072Z,14.60
2019-04-13T15:05:22.755Z,13.60
2019-04-13T15:06:25.106Z,14.00
2019-04-13T15:08:15.298Z,14.00
2019-04-13T15:09:17.292Z,14.50
2019-04-13T15:11:17.036Z,14.40
2019-04-13T15:12:11.530Z,14.20
2019-04-13T15:14:00.407Z,14.30
2019-04-13T15:15:00.711Z,14.50
2019-04-13T15:16:53.219Z,14.00
2019-04-13T15:17:53.746Z,15.00
2019-04-13T15:19:55.896Z,14.10
2019-04-13T15:20:48.129Z,13.70
2019-04-13T15:22:39.463Z,13.60
2019-04-13T15:23:40.017Z,13.20
2019-04-13T15:25:31.084Z,15.40
2019-04-13T15:26:30.534Z,16.10
2019-04-13T15:28:23.436Z,14.80
2019-04-13T15:29:26.107Z,14.30
2019-04-13T15:31:16.426Z,14.50
2019-04-13T15:32:16.889Z,15.80
2019-04-13T15:34:09.343Z,14.80
2019-04-13T15:35:13.707Z,15.20
2019-04-13T15:37:03.589Z,16.70
2019-04-13T15:38:00.766Z,16.40
2019-04-13T15:39:53.451Z,16.40
2019-04-13T15:40:57.181Z,16.90
2019-04-13T15:42:53.403Z,17.60
2019-04-13T15:43:48.394Z,16.40
2019-04-13T15:45:42.981Z,16.80
2019-04-13T15:46:39.388Z,16.50
2019-04-13T15:48:32.382Z,16.80
2019-04-13T15:49:31.731Z,17.00
2019-04-13T15:51:24.401Z,16.00
2019-04-13T15:52:24.240Z,17.10
2019-04-13T15:54:16.694Z,17.80
2019-04-13T15:55:16.585Z,17.70
2019-04-13T15:57:10.393Z,16.80
2019-04-13T15:58:08.662Z,16.70
2019-04-13T16:00:02.490Z,21.80
2019-04-13T16:01:01.212Z,22.70
2019-04-13T16:02:54.207Z,17.40
2019-04-13T16:03:53.762Z,17.30
2019-04-13T16:05:47.436Z,17.90
2019-04-13T16:06:46.460Z,17.50
2019-04-13T16:08:39.011Z,18.00
2019-04-13T16:09:39.201Z,17.10
2019-04-13T16:11:42.383Z,16.80
2019-04-13T16:12:31.979Z,17.20
2019-04-13T16:14:24.617Z,16.30
2019-04-13T16:15:24.981Z,16.90
2019-04-13T16:17:16.774Z,14.30
2019-04-13T16:18:17.548Z,14.50
2019-04-13T16:20:09.740Z,13.90
2019-04-13T16:21:09.134Z,13.60
2019-04-13T16:23:02.546Z,14.10
2019-04-13T16:24:02.720Z,13.80
2019-04-13T16:25:55.175Z,14.60
2019-04-13T16:26:54.219Z,14.10
2019-04-13T16:28:48.217Z,15.10
2019-04-13T16:29:46.838Z,13.70
2019-04-13T16:31:39.748Z,15.20
2019-04-13T16:32:40.480Z,15.10
2019-04-13T16:34:32.311Z,14.80
2019-04-13T16:35:32.836Z,14.40
2019-04-13T16:37:25.614Z,14.80
2019-04-13T16:38:24.469Z,15.20
2019-04-13T16:40:17.130Z,15.60
2019-04-13T16:41:17.394Z,14.60
2019-04-13T16:43:09.718Z,14.30
2019-04-13T16:44:10.243Z,15.50
2019-04-13T16:46:02.245Z,13.50
2019-04-13T16:47:02.136Z,13.60
2019-04-13T16:49:04.788Z,15.50
2019-04-13T16:49:54.695Z,14.70
2019-04-13T16:51:47.843Z,16.20
2019-04-13T16:52:47.410Z,15.90
2019-04-13T16:54:50.849Z,16.20
2019-04-13T16:55:39.798Z,16.20
2019-04-13T16:57:33.639Z,16.70
2019-04-13T16:58:32.358Z,16.60
2019-04-13T17:00:25.044Z,17.50
2019-04-13T17:01:25.267Z,17.30
2019-04-13T17:03:18.648Z,17.60
2019-04-13T17:04:17.466Z,16.60
2019-04-13T17:06:11.082Z,16.50
2019-04-13T17:07:11.106Z,16.10
2019-04-13T17:09:02.682Z,15.70
2019-04-13T17:10:02.575Z,15.50
2019-04-13T17:12:06.486Z,16.80
2019-04-13T17:12:55.118Z,15.90
2019-04-13T17:14:47.849Z,14.80
2019-04-13T17:15:48.416Z,14.70
2019-04-13T17:17:40.602Z,14.50
2019-04-13T17:18:40.269Z,14.40
2019-04-13T17:20:32.966Z,13.70
2019-04-13T17:21:33.575Z,13.20
2019-04-13T17:23:25.543Z,13.30
2019-04-13T17:24:25.992Z,12.90
2019-04-13T17:26:18.052Z,13.80
2019-04-13T17:27:17.950Z,13.50
2019-04-13T17:29:10.996Z,13.50
2019-04-13T17:30:10.954Z,13.20
2019-04-13T17:32:04.206Z,12.90
2019-04-13T17:33:04.215Z,13.70
2019-04-13T17:34:56.922Z,13.20
2019-04-13T17:35:55.595Z,14.20
2019-04-13T17:37:48.473Z,13.40
2019-04-13T17:38:48.148Z,14.00
2019-04-13T17:40:40.850Z,13.60
2019-04-13T17:41:40.703Z,13.90
2019-04-13T17:43:34.301Z,13.40
2019-04-13T17:44:33.260Z,13.30
2019-04-13T17:46:25.937Z,13.40
2019-04-13T17:47:26.572Z,13.00
2019-04-13T17:49:18.489Z,13.60
2019-04-13T17:50:18.370Z,13.00
2019-04-13T17:52:11.286Z,13.80
2019-04-13T17:53:11.561Z,14.30
2019-04-13T17:55:04.745Z,13.40
2019-04-13T17:56:04.765Z,14.40
2019-04-13T17:57:57.506Z,14.70
2019-04-13T17:58:56.977Z,13.90
2019-04-13T18:00:50.269Z,12.80
2019-04-13T18:01:48.582Z,13.70
2019-04-13T18:03:42.811Z,13.90
2019-04-13T18:04:41.620Z,14.00
2019-04-13T18:06:34.310Z,13.00
2019-04-13T18:07:34.387Z,13.00
2019-04-13T18:09:26.853Z,13.10
2019-04-13T18:10:29.292Z,14.10
2019-04-13T18:12:19.387Z,14.50
2019-04-13T18:13:19.844Z,14.30
2019-04-13T18:15:12.014Z,14.60
2019-04-13T18:16:12.932Z,14.80
2019-04-13T18:18:04.499Z,14.10
2019-04-13T18:19:04.785Z,14.50
2019-04-13T18:20:57.344Z,14.50
2019-04-13T18:21:57.873Z,16.50
2019-04-13T18:23:50.545Z,14.70
2019-04-13T18:24:49.473Z,14.50
2019-04-13T18:26:43.490Z,15.40
2019-04-13T18:27:42.018Z,15.60
2019-04-13T18:29:34.753Z,14.70
2019-04-13T18:30:38.211Z,14.30
2019-04-13T18:32:27.972Z,13.30
2019-04-13T18:33:28.278Z,12.40
2019-04-13T18:35:19.794Z,11.40
2019-04-13T18:36:19.684Z,12.10
2019-04-13T18:38:12.522Z,11.50
2019-04-13T18:39:13.327Z,11.60
2019-04-13T18:41:05.964Z,11.30
2019-04-13T18:42:05.620Z,14.10
2019-04-13T18:43:58.612Z,11.10
2019-04-13T18:44:57.382Z,11.20
2019-04-13T18:46:50.055Z,12.90
2019-04-13T18:47:51.278Z,13.80
2019-04-13T18:49:43.157Z,13.40
2019-04-13T18:50:43.385Z,12.80
2019-04-13T18:52:35.147Z,13.50
2019-04-13T18:53:35.525Z,13.30
2019-04-13T18:55:28.654Z,12.60
2019-04-13T18:56:27.582Z,13.20
2019-04-13T18:58:20.725Z,13.50
2019-04-13T18:59:20.128Z,14.00
2019-04-13T19:01:13.667Z,13.50
2019-04-13T19:02:12.694Z,14.50
2019-04-13T19:04:05.363Z,14.60
2019-04-13T19:05:05.238Z,14.40
2019-04-13T19:06:57.922Z,14.10
2019-04-13T19:07:57.785Z,13.60
2019-04-13T19:09:50.441Z,13.80
2019-04-13T19:10:50.331Z,13.60
2019-04-13T19:12:43.006Z,14.60
2019-04-13T19:13:42.877Z,14.20
2019-04-13T19:15:35.556Z,14.30
2019-04-13T19:16:35.432Z,13.50
2019-04-13T19:18:28.115Z,14.50
2019-04-13T19:19:27.995Z,13.70
2019-04-13T19:21:20.648Z,14.20
2019-04-13T19:22:20.533Z,14.20
2019-04-13T19:24:13.225Z,13.10
2019-04-13T19:25:13.083Z,13.90
2019-04-13T19:27:05.740Z,14.60
2019-04-13T19:28:05.627Z,14.60
2019-04-13T19:29:58.331Z,14.70
2019-04-13T19:30:58.198Z,14.80
2019-04-13T19:32:50.881Z,14.70
2019-04-13T19:33:50.749Z,15.20
2019-04-13T19:35:43.466Z,16.80
2019-04-13T19:36:43.332Z,18.00
2019-04-13T19:38:35.994Z,17.30
2019-04-13T19:39:35.920Z,17.70
2019-04-13T19:41:28.607Z,15.90
2019-04-13T19:42:28.447Z,14.60
2019-04-13T19:44:21.092Z,15.20
2019-04-13T19:45:20.977Z,15.30
2019-04-13T19:47:13.671Z,14.30
2019-04-13T19:48:13.544Z,14.10
2019-04-13T19:50:06.209Z,14.20
2019-04-13T19:51:06.151Z,14.50
2019-04-13T19:52:58.786Z,14.80
2019-04-13T19:53:58.656Z,14.80
2019-04-13T19:55:51.305Z,13.80
2019-04-13T19:56:51.190Z,14.60
2019-04-13T19:58:43.890Z,14.30
2019-04-13T19:59:43.762Z,14.70
2019-04-13T20:01:36.428Z,14.70
2019-04-13T20:02:36.307Z,15.80
2019-04-13T20:04:28.995Z,14.10
2019-04-13T20:05:28.853Z,15.10
2019-04-13T20:07:21.518Z,14.60
2019-04-13T20:08:21.412Z,14.60
2019-04-13T20:10:14.086Z,14.80
2019-04-13T20:11:13.955Z,15.40
2019-04-13T20:13:06.604Z,15.50
2019-04-13T20:14:10.648Z,15.50
2019-04-13T20:15:59.364Z,16.20
2019-04-13T20:16:59.924Z,14.80
2019-04-13T20:18:51.715Z,14.40
2019-04-13T20:19:51.586Z,15.20
2019-04-13T20:21:44.261Z,14.90
2019-04-13T20:22:44.367Z,16.40
2019-04-13T20:24:36.800Z,15.20
2019-04-13T20:25:37.298Z,14.40
2019-04-13T20:27:30.545Z,14.80
2019-04-13T20:28:29.247Z,14.60
2019-04-13T20:30:23.708Z,15.80
2019-04-13T20:31:22.568Z,15.60
2019-04-13T20:33:15.321Z,15.80
2019-04-13T20:34:14.917Z,15.70
2019-04-13T20:36:13.955Z,15.40
2019-04-13T20:37:07.918Z,15.00
2019-04-13T20:39:00.541Z,15.80
2019-04-13T20:40:01.053Z,16.50
2019-04-13T20:42:00.478Z,15.20
2019-04-13T20:42:52.658Z,16.00
2019-04-13T20:44:45.255Z,16.00
2019-04-13T20:45:45.123Z,15.30
2019-04-13T20:47:37.785Z,15.40
2019-04-13T20:48:37.934Z,14.80
2019-04-13T20:50:31.620Z,16.30
2019-04-13T20:51:30.257Z,15.80
2019-04-13T20:53:22.868Z,17.00
2019-04-13T20:54:22.760Z,16.60
2019-04-13T20:56:16.512Z,16.30
2019-04-13T20:57:15.299Z,16.90
2019-04-13T20:59:08.531Z,17.10
2019-04-13T21:00:07.845Z,16.80
2019-04-13T21:02:00.556Z,16.90
2019-04-13T21:03:01.279Z,17.00
2019-04-13T21:04:53.046Z,17.80
2019-04-13T21:05:53.404Z,17.40
2019-04-13T21:07:46.631Z,19.90
2019-04-13T21:08:45.554Z,18.50
2019-04-13T21:10:38.146Z,33.80
2019-04-13T21:11:38.030Z,31.10
2019-04-13T21:13:31.710Z,47.30
2019-04-13T21:14:36.559Z,17.50
2019-04-13T21:16:23.787Z,27.80
2019-04-13T21:17:24.708Z,58.20
2019-04-13T21:19:17.431Z,20.30
2019-04-13T21:20:16.594Z,18.40
2019-04-13T21:22:09.456Z,16.20
2019-04-13T21:23:08.720Z,16.70
2019-04-13T21:25:01.399Z,16.90
2019-04-13T21:26:01.952Z,18.00
2019-04-13T21:27:55.221Z,17.50
2019-04-13T21:28:53.844Z,17.80
2019-04-13T21:30:46.741Z,15.80
2019-04-13T21:31:46.348Z,17.60
2019-04-13T21:33:39.005Z,17.80
2019-04-13T21:34:41.408Z,17.50
2019-04-13T21:36:32.719Z,16.90
2019-04-13T21:37:31.439Z,16.70
2019-04-13T21:39:24.367Z,16.80
2019-04-13T21:40:25.115Z,17.80
2019-04-13T21:42:16.677Z,18.00
2019-04-13T21:43:17.240Z,17.80
2019-04-13T21:45:10.237Z,26.80
2019-04-13T21:46:09.086Z,30.30
2019-04-13T21:48:02.318Z,19.60
2019-04-13T21:49:01.635Z,18.00
2019-04-13T21:50:54.445Z,26.20
2019-04-13T21:51:55.224Z,19.30
2019-04-13T21:53:46.851Z,27.00
2019-04-13T21:54:47.454Z,20.70
2019-04-13T21:56:40.458Z,18.60
2019-04-13T21:57:39.383Z,18.50
2019-04-13T21:59:32.539Z,17.50
